sensor_id;sensor_type;location;lat;lon;timestamp;pressure;altitude;pressure_sealevel;temperature;humidity
10127;BME280;13080;42.608;23.362;2023-02-13T00:00:51;150167.53;;;-3.74;100.00
10127;BME280;13080;42.608;23.362;2023-02-13T00:03:18;150162.44;;;-3.77;100.00
10127;BME280;13080;42.608;23.362;2023-02-13T00:05:45;150153.44;;;-3.80;100.00
10127;BME280;13080;42.608;23.362;2023-02-13T00:08:11;150152.16;;;-3.81;100.00
10127;BME280;13080;42.608;23.362;2023-02-13T00:10:38;150144.44;;;-3.84;100.00
10127;BME280;13080;42.608;23.362;2023-02-13T00:13:05;150136.75;;;-3.87;100.00
10127;BME280;13080;42.608;23.362;2023-02-13T00:15:31;150131.63;;;-3.89;100.00
10127;BME280;13080;42.608;23.362;2023-02-13T00:18:00;150129.06;;;-3.90;100.00
10127;BME280;13080;42.608;23.362;2023-02-13T00:20:27;150113.66;;;-3.96;100.00
10127;BME280;13080;42.608;23.362;2023-02-13T00:22:54;150112.38;;;-3.97;100.00
10127;BME280;13080;42.608;23.362;2023-02-13T00:25:21;150099.53;;;-4.02;100.00
10127;BME280;13080;42.608;23.362;2023-02-13T00:27:49;150093.09;;;-4.04;100.00
10127;BME280;13080;42.608;23.362;2023-02-13T00:30:16;150086.69;;;-4.07;100.00
10127;BME280;13080;42.608;23.362;2023-02-13T00:32:43;150070.03;;;-4.13;100.00
10127;BME280;13080;42.608;23.362;2023-02-13T00:35:11;150076.44;;;-4.11;100.00
10127;BME280;13080;42.608;23.362;2023-02-13T00:37:38;150089.28;;;-4.06;100.00
10127;BME280;13080;42.608;23.362;2023-02-13T00:40:06;150103.38;;;-4.00;100.00
10127;BME280;13080;42.608;23.362;2023-02-13T00:42:33;150107.25;;;-3.99;100.00
10127;BME280;13080;42.608;23.362;2023-02-13T00:44:59;150122.63;;;-3.92;100.00
10127;BME280;13080;42.608;23.362;2023-02-13T00:47:26;150135.47;;;-3.87;100.00
10127;BME280;13080;42.608;23.362;2023-02-13T00:49:53;150141.91;;;-3.85;100.00
10127;BME280;13080;42.608;23.362;2023-02-13T00:52:21;150150.84;;;-3.81;100.00
10127;BME280;13080;42.608;23.362;2023-02-13T00:54:48;150170.13;;;-3.73;100.00
10127;BME280;13080;42.608;23.362;2023-02-13T00:57:14;150174.00;;;-3.72;100.00
10127;BME280;13080;42.608;23.362;2023-02-13T00:59:41;150181.69;;;-3.69;100.00
10127;BME280;13080;42.608;23.362;2023-02-13T01:02:08;150176.53;;;-3.71;100.00
10127;BME280;13080;42.608;23.362;2023-02-13T01:04:34;150171.41;;;-3.73;100.00
10127;BME280;13080;42.608;23.362;2023-02-13T01:07:01;150170.13;;;-3.73;100.00
10127;BME280;13080;42.608;23.362;2023-02-13T01:09:29;150167.53;;;-3.74;100.00
10127;BME280;13080;42.608;23.362;2023-02-13T01:11:56;150162.44;;;-3.77;100.00
10127;BME280;13080;42.608;23.362;2023-02-13T01:14:23;150158.59;;;-3.78;100.00
10127;BME280;13080;42.608;23.362;2023-02-13T01:16:49;150150.84;;;-3.81;100.00
10127;BME280;13080;42.608;23.362;2023-02-13T01:19:16;150141.91;;;-3.85;100.00
10127;BME280;13080;42.608;23.362;2023-02-13T01:21:43;150126.47;;;-3.91;100.00
10127;BME280;13080;42.608;23.362;2023-02-13T01:24:10;150113.66;;;-3.96;100.00
10127;BME280;13080;42.608;23.362;2023-02-13T01:26:38;150114.94;;;-3.95;100.00
10127;BME280;13080;42.608;23.362;2023-02-13T01:29:05;150094.38;;;-4.04;100.00
10127;BME280;13080;42.608;23.362;2023-02-13T01:31:32;150086.69;;;-4.07;100.00
10127;BME280;13080;42.608;23.362;2023-02-13T01:33:59;150079.03;;;-4.10;100.00
10127;BME280;13080;42.608;23.362;2023-02-13T01:36:26;150061.03;;;-4.17;100.00
10127;BME280;13080;42.608;23.362;2023-02-13T01:38:54;150057.19;;;-4.19;100.00
10127;BME280;13080;42.608;23.362;2023-02-13T01:41:21;150059.75;;;-4.18;100.00
10127;BME280;13080;42.608;23.362;2023-02-13T01:43:51;150053.34;;;-4.20;100.00
10127;BME280;13080;42.608;23.362;2023-02-13T01:46:22;150054.63;;;-4.20;100.00
10127;BME280;13080;42.608;23.362;2023-02-13T01:48:51;150071.28;;;-4.13;100.00
10127;BME280;13080;42.608;23.362;2023-02-13T01:51:24;150080.28;;;-4.09;100.00
10127;BME280;13080;42.608;23.362;2023-02-13T01:53:56;150096.97;;;-4.03;100.00
10127;BME280;13080;42.608;23.362;2023-02-13T01:56:27;150118.78;;;-3.94;100.00
10127;BME280;13080;42.608;23.362;2023-02-13T01:58:58;150148.31;;;-3.82;100.00
10127;BME280;13080;42.608;23.362;2023-02-13T02:01:26;150159.84;;;-3.78;100.00
10127;BME280;13080;42.608;23.362;2023-02-13T02:03:56;150179.13;;;-3.70;100.00
10127;BME280;13080;42.608;23.362;2023-02-13T02:06:27;150207.38;;;-3.59;100.00
10127;BME280;13080;42.608;23.362;2023-02-13T02:08:56;150208.66;;;-3.58;100.00
10127;BME280;13080;42.608;23.362;2023-02-13T02:11:31;150225.34;;;-3.51;100.00
10127;BME280;13080;42.608;23.362;2023-02-13T02:14:01;150249.72;;;-3.42;100.00
10127;BME280;13080;42.608;23.362;2023-02-13T02:16:28;150254.84;;;-3.40;100.00
10127;BME280;13080;42.608;23.362;2023-02-13T02:18:57;150263.84;;;-3.36;100.00
10127;BME280;13080;42.608;23.362;2023-02-13T02:24:54;150286.97;;;-3.27;100.00
10127;BME280;13080;42.608;23.362;2023-02-13T02:27:56;150301.06;;;-3.21;100.00
10127;BME280;13080;42.608;23.362;2023-02-13T02:33:40;150312.63;;;-3.17;100.00
10127;BME280;13080;42.608;23.362;2023-02-13T02:36:22;150308.81;;;-3.18;100.00
10127;BME280;13080;42.608;23.362;2023-02-13T02:39:02;150308.81;;;-3.18;100.00
10127;BME280;13080;42.608;23.362;2023-02-13T02:41:43;150312.63;;;-3.17;100.00
10127;BME280;13080;42.608;23.362;2023-02-13T02:44:19;150329.31;;;-3.10;100.00
10127;BME280;13080;42.608;23.362;2023-02-13T02:46:57;150328.03;;;-3.10;100.00
10127;BME280;13080;42.608;23.362;2023-02-13T02:49:53;150340.88;;;-3.05;100.00
10127;BME280;13080;42.608;23.362;2023-02-13T02:52:35;150331.91;;;-3.09;100.00
10127;BME280;13080;42.608;23.362;2023-02-13T02:55:06;150343.47;;;-3.04;100.00
10127;BME280;13080;42.608;23.362;2023-02-13T02:57:40;150329.31;;;-3.10;100.00
10127;BME280;13080;42.608;23.362;2023-02-13T03:00:27;150324.19;;;-3.12;100.00
10127;BME280;13080;42.608;23.362;2023-02-13T03:03:15;150311.34;;;-3.17;100.00
10127;BME280;13080;42.608;23.362;2023-02-13T03:06:03;150347.28;;;-3.03;100.00
10127;BME280;13080;42.608;23.362;2023-02-13T03:08:40;150340.88;;;-3.05;100.00
10127;BME280;13080;42.608;23.362;2023-02-13T03:11:25;150347.28;;;-3.03;100.00
10127;BME280;13080;42.608;23.362;2023-02-13T03:14:10;150330.59;;;-3.09;100.00
10127;BME280;13080;42.608;23.362;2023-02-13T03:16:38;150329.31;;;-3.10;100.00
10127;BME280;13080;42.608;23.362;2023-02-13T03:19:30;150331.91;;;-3.09;100.00
10127;BME280;13080;42.608;23.362;2023-02-13T03:22:30;150326.78;;;-3.11;100.00
10127;BME280;13080;42.608;23.362;2023-02-13T03:25:06;150335.72;;;-3.07;100.00
10127;BME280;13080;42.608;23.362;2023-02-13T03:27:41;150344.75;;;-3.04;100.00
10127;BME280;13080;42.608;23.362;2023-02-13T03:30:35;150339.59;;;-3.06;100.00
10127;BME280;13080;42.608;23.362;2023-02-13T03:33:23;150351.16;;;-3.01;100.00
10127;BME280;13080;42.608;23.362;2023-02-13T03:36:00;150346.00;;;-3.03;100.00
10127;BME280;13080;42.608;23.362;2023-02-13T03:38:52;150337.06;;;-3.07;100.00
10127;BME280;13080;42.608;23.362;2023-02-13T03:41:24;150317.75;;;-3.15;100.00
10127;BME280;13080;42.608;23.362;2023-02-13T03:44:02;150325.50;;;-3.11;100.00
10127;BME280;13080;42.608;23.362;2023-02-13T03:46:32;150334.47;;;-3.08;100.00
10127;BME280;13080;42.608;23.362;2023-02-13T03:49:01;150342.19;;;-3.05;100.00
10127;BME280;13080;42.608;23.362;2023-02-13T03:51:50;150330.59;;;-3.09;100.00
10127;BME280;13080;42.608;23.362;2023-02-13T03:54:22;150325.50;;;-3.11;100.00
10127;BME280;13080;42.608;23.362;2023-02-13T03:57:11;150337.06;;;-3.07;100.00
10127;BME280;13080;42.608;23.362;2023-02-13T03:59:58;150325.50;;;-3.11;100.00
10127;BME280;13080;42.608;23.362;2023-02-13T04:02:30;150324.19;;;-3.12;100.00
10127;BME280;13080;42.608;23.362;2023-02-13T04:05:03;150322.91;;;-3.13;100.00
10127;BME280;13080;42.608;23.362;2023-02-13T04:07:33;150331.91;;;-3.09;100.00
10127;BME280;13080;42.608;23.362;2023-02-13T04:10:04;150322.91;;;-3.13;100.00
10127;BME280;13080;42.608;23.362;2023-02-13T04:12:38;150337.06;;;-3.07;100.00
10127;BME280;13080;42.608;23.362;2023-02-13T04:15:13;150338.34;;;-3.06;100.00
10127;BME280;13080;42.608;23.362;2023-02-13T04:17:44;150340.88;;;-3.05;100.00
10127;BME280;13080;42.608;23.362;2023-02-13T04:20:12;150331.91;;;-3.09;100.00
10127;BME280;13080;42.608;23.362;2023-02-13T04:22:43;150346.00;;;-3.03;100.00
10127;BME280;13080;42.608;23.362;2023-02-13T04:25:13;150346.00;;;-3.03;100.00
10127;BME280;13080;42.608;23.362;2023-02-13T04:27:41;150349.88;;;-3.02;100.00
10127;BME280;13080;42.608;23.362;2023-02-13T04:30:09;150330.59;;;-3.09;100.00
10127;BME280;13080;42.608;23.362;2023-02-13T04:32:36;150343.47;;;-3.04;100.00
10127;BME280;13080;42.608;23.362;2023-02-13T04:35:03;150333.19;;;-3.08;100.00
10127;BME280;13080;42.608;23.362;2023-02-13T04:37:29;150343.47;;;-3.04;100.00
10127;BME280;13080;42.608;23.362;2023-02-13T04:39:56;150346.00;;;-3.03;100.00
10127;BME280;13080;42.608;23.362;2023-02-13T04:42:24;150339.59;;;-3.06;100.00
10127;BME280;13080;42.608;23.362;2023-02-13T04:44:51;150337.06;;;-3.07;100.00
10127;BME280;13080;42.608;23.362;2023-02-13T04:47:18;150339.59;;;-3.06;100.00
10127;BME280;13080;42.608;23.362;2023-02-13T04:49:44;150344.75;;;-3.04;100.00
10127;BME280;13080;42.608;23.362;2023-02-13T04:52:11;150343.47;;;-3.04;100.00
10127;BME280;13080;42.608;23.362;2023-02-13T04:54:39;150343.47;;;-3.04;100.00
10127;BME280;13080;42.608;23.362;2023-02-13T04:57:06;150352.44;;;-3.01;100.00
10127;BME280;13080;42.608;23.362;2023-02-13T04:59:34;150352.44;;;-3.01;100.00
10127;BME280;13080;42.608;23.362;2023-02-13T05:02:01;150348.59;;;-3.02;100.00
10127;BME280;13080;42.608;23.362;2023-02-13T05:04:28;150343.47;;;-3.04;100.00
10127;BME280;13080;42.608;23.362;2023-02-13T05:06:55;150339.59;;;-3.06;100.00
10127;BME280;13080;42.608;23.362;2023-02-13T05:09:21;150340.88;;;-3.05;100.00
10127;BME280;13080;42.608;23.362;2023-02-13T05:11:50;150347.28;;;-3.03;100.00
10127;BME280;13080;42.608;23.362;2023-02-13T05:14:17;150344.75;;;-3.04;100.00
10127;BME280;13080;42.608;23.362;2023-02-13T05:16:45;150370.44;;;-2.94;100.00
10127;BME280;13080;42.608;23.362;2023-02-13T05:19:11;150352.44;;;-3.01;100.00
10127;BME280;13080;42.608;23.362;2023-02-13T05:21:38;150348.59;;;-3.02;100.00
10127;BME280;13080;42.608;23.362;2023-02-13T05:24:23;150353.75;;;-3.00;100.00
10127;BME280;13080;42.608;23.362;2023-02-13T05:26:49;150371.72;;;-2.93;100.00
10127;BME280;13080;42.608;23.362;2023-02-13T05:29:16;150375.53;;;-2.92;100.00
10127;BME280;13080;42.608;23.362;2023-02-13T05:31:49;150379.41;;;-2.90;100.00
10127;BME280;13080;42.608;23.362;2023-02-13T05:34:20;150396.13;;;-2.83;100.00
10127;BME280;13080;42.608;23.362;2023-02-13T05:36:47;150411.53;;;-2.77;100.00
10127;BME280;13080;42.608;23.362;2023-02-13T05:39:15;150396.13;;;-2.83;100.00
10127;BME280;13080;42.608;23.362;2023-02-13T05:41:42;150419.22;;;-2.74;100.00
10127;BME280;13080;42.608;23.362;2023-02-13T05:44:09;150448.81;;;-2.62;100.00
10127;BME280;13080;42.608;23.362;2023-02-13T05:46:39;150448.81;;;-2.62;100.00
10127;BME280;13080;42.608;23.362;2023-02-13T05:49:08;150432.13;;;-2.69;100.00
10127;BME280;13080;42.608;23.362;2023-02-13T05:51:36;150453.91;;;-2.60;100.00
10127;BME280;13080;42.608;23.362;2023-02-13T05:54:02;150456.50;;;-2.59;100.00
10127;BME280;13080;42.608;23.362;2023-02-13T05:56:29;150461.66;;;-2.57;100.00
10127;BME280;13080;42.608;23.362;2023-02-13T05:58:56;150478.34;;;-2.51;100.00
10127;BME280;13080;42.608;23.362;2023-02-13T06:01:23;150519.47;;;-2.34;100.00
10127;BME280;13080;42.608;23.362;2023-02-13T06:03:50;150522.06;;;-2.33;100.00
10127;BME280;13080;42.608;23.362;2023-02-13T06:06:18;150516.91;;;-2.35;100.00
10127;BME280;13080;42.608;23.362;2023-02-13T06:08:45;150515.59;;;-2.36;100.00
10127;BME280;13080;42.608;23.362;2023-02-13T06:11:12;150536.16;;;-2.27;100.00
10127;BME280;13080;42.608;23.362;2023-02-13T06:13:39;150559.31;;;-2.18;100.00
10127;BME280;13080;42.608;23.362;2023-02-13T06:16:06;150569.59;;;-2.14;100.00
10127;BME280;13080;42.608;23.362;2023-02-13T06:18:33;150561.91;;;-2.17;100.00
10127;BME280;13080;42.608;23.362;2023-02-13T06:21:00;150565.72;;;-2.16;100.00
10127;BME280;13080;42.608;23.362;2023-02-13T06:23:28;150569.59;;;-2.14;100.00
10127;BME280;13080;42.608;23.362;2023-02-13T06:25:55;150590.19;;;-2.06;100.00
10127;BME280;13080;42.608;23.362;2023-02-13T06:28:22;150644.16;;;-1.84;100.00
10127;BME280;13080;42.608;23.362;2023-02-13T06:30:48;150653.16;;;-1.81;100.00
10127;BME280;13080;42.608;23.362;2023-02-13T06:33:15;150650.56;;;-1.82;100.00
10127;BME280;13080;42.608;23.362;2023-02-13T06:35:42;150651.88;;;-1.81;100.00
10127;BME280;13080;42.608;23.362;2023-02-13T06:38:09;150667.28;;;-1.75;100.00
10127;BME280;13080;42.608;23.362;2023-02-13T06:40:37;150676.31;;;-1.72;100.00
10127;BME280;13080;42.608;23.362;2023-02-13T06:43:03;150700.72;;;-1.62;99.15
10127;BME280;13080;42.608;23.362;2023-02-13T06:45:30;150698.16;;;-1.63;99.33
10127;BME280;13080;42.608;23.362;2023-02-13T06:47:57;150664.72;;;-1.76;99.16
10127;BME280;13080;42.608;23.362;2023-02-13T06:50:23;150676.31;;;-1.72;100.00
10127;BME280;13080;42.608;23.362;2023-02-13T06:52:51;150721.31;;;-1.54;98.44
10127;BME280;13080;42.608;23.362;2023-02-13T06:55:19;150725.19;;;-1.52;98.44
10127;BME280;13080;42.608;23.362;2023-02-13T06:57:48;150735.44;;;-1.48;97.79
10127;BME280;13080;42.608;23.362;2023-02-13T07:00:16;150726.47;;;-1.52;97.62
10127;BME280;13080;42.608;23.362;2023-02-13T07:02:46;150734.16;;;-1.49;98.48
10127;BME280;13080;42.608;23.362;2023-02-13T07:05:13;150743.19;;;-1.45;98.94
10127;BME280;13080;42.608;23.362;2023-02-13T07:07:41;150720.03;;;-1.54;98.29
10127;BME280;13080;42.608;23.362;2023-02-13T07:10:10;150758.63;;;-1.39;98.79
10127;BME280;13080;42.608;23.362;2023-02-13T07:12:38;150749.59;;;-1.42;97.27
10127;BME280;13080;42.608;23.362;2023-02-13T07:15:07;150739.31;;;-1.47;97.66
10127;BME280;13080;42.608;23.362;2023-02-13T07:17:33;150726.47;;;-1.52;98.40
10127;BME280;13080;42.608;23.362;2023-02-13T07:20:00;150747.06;;;-1.43;98.10
10127;BME280;13080;42.608;23.362;2023-02-13T07:22:29;150806.19;;;-1.20;96.40
10127;BME280;13080;42.608;23.362;2023-02-13T07:24:56;150801.03;;;-1.22;96.79
10127;BME280;13080;42.608;23.362;2023-02-13T07:27:24;150794.63;;;-1.24;96.95
10127;BME280;13080;42.608;23.362;2023-02-13T07:29:53;150807.47;;;-1.19;96.83
10127;BME280;13080;42.608;23.362;2023-02-13T07:32:22;150817.78;;;-1.15;97.37
10127;BME280;13080;42.608;23.362;2023-02-13T07:34:49;150858.94;;;-0.99;96.56
10127;BME280;13080;42.608;23.362;2023-02-13T07:37:15;150906.56;;;-0.80;95.03
10127;BME280;13080;42.608;23.362;2023-02-13T07:39:42;150867.97;;;-0.95;94.15
10127;BME280;13080;42.608;23.362;2023-02-13T07:42:09;150861.53;;;-0.98;94.71
10127;BME280;13080;42.608;23.362;2023-02-13T07:44:35;150875.66;;;-0.92;93.78
10127;BME280;13080;42.608;23.362;2023-02-13T07:47:02;150879.53;;;-0.91;94.29
10127;BME280;13080;42.608;23.362;2023-02-13T07:49:30;150867.97;;;-0.95;94.93
10127;BME280;13080;42.608;23.362;2023-02-13T07:51:57;150898.81;;;-0.83;94.59
10127;BME280;13080;42.608;23.362;2023-02-13T07:54:24;150920.69;;;-0.74;93.10
10127;BME280;13080;42.608;23.362;2023-02-13T07:56:50;150915.53;;;-0.76;92.71
10127;BME280;13080;42.608;23.362;2023-02-13T07:59:17;150960.59;;;-0.58;92.13
10127;BME280;13080;42.608;23.362;2023-02-13T08:01:44;150972.22;;;-0.54;90.49
10127;BME280;13080;42.608;23.362;2023-02-13T08:04:11;150985.06;;;-0.49;91.29
10127;BME280;13080;42.608;23.362;2023-02-13T08:06:40;151001.81;;;-0.42;90.59
10127;BME280;13080;42.608;23.362;2023-02-13T08:09:07;150938.75;;;-0.67;91.28
10127;BME280;13080;42.608;23.362;2023-02-13T08:12:00;150968.34;;;-0.55;91.12
10127;BME280;13080;42.608;23.362;2023-02-13T08:14:27;151008.25;;;-0.39;90.15
10127;BME280;13080;42.608;23.362;2023-02-13T08:16:54;151045.59;;;-0.25;90.65
10127;BME280;13080;42.608;23.362;2023-02-13T08:19:21;151036.56;;;-0.28;89.54
10127;BME280;13080;42.608;23.362;2023-02-13T08:21:49;151006.97;;;-0.40;88.79
10127;BME280;13080;42.608;23.362;2023-02-13T08:24:15;151024.97;;;-0.33;88.98
10127;BME280;13080;42.608;23.362;2023-02-13T08:26:42;151084.19;;;-0.09;87.62
10127;BME280;13080;42.608;23.362;2023-02-13T08:29:09;151066.16;;;-0.16;87.88
10127;BME280;13080;42.608;23.362;2023-02-13T08:31:37;151073.91;;;-0.13;87.88
10127;BME280;13080;42.608;23.362;2023-02-13T08:34:03;151130.59;;;0.09;87.15
10127;BME280;13080;42.608;23.362;2023-02-13T08:36:30;151148.59;;;0.16;85.34
10127;BME280;13080;42.608;23.362;2023-02-13T08:38:58;151108.69;;;0.01;85.91
10127;BME280;13080;42.608;23.362;2023-02-13T08:41:25;151115.13;;;0.03;86.60
10127;BME280;13080;42.608;23.362;2023-02-13T08:43:53;151089.34;;;-0.07;86.80
10127;BME280;13080;42.608;23.362;2023-02-13T08:46:20;151099.66;;;-0.03;86.66
10127;BME280;13080;42.608;23.362;2023-02-13T08:48:47;151113.84;;;0.03;86.73
10127;BME280;13080;42.608;23.362;2023-02-13T08:51:13;151048.16;;;-0.24;86.94
10127;BME280;13080;42.608;23.362;2023-02-13T08:53:40;150999.22;;;-0.43;88.80
10127;BME280;13080;42.608;23.362;2023-02-13T08:56:09;151030.13;;;-0.31;88.74
10127;BME280;13080;42.608;23.362;2023-02-13T08:58:36;151086.78;;;-0.08;87.42
10127;BME280;13080;42.608;23.362;2023-02-13T09:01:04;151058.47;;;-0.19;86.86
10127;BME280;13080;42.608;23.362;2023-02-13T09:03:31;151085.50;;;-0.09;87.33
10127;BME280;13080;42.608;23.362;2023-02-13T09:05:58;151115.13;;;0.03;87.16
10127;BME280;13080;42.608;23.362;2023-02-13T09:08:25;151091.94;;;-0.06;86.47
10127;BME280;13080;42.608;23.362;2023-02-13T09:10:56;151086.78;;;-0.08;86.58
10127;BME280;13080;42.608;23.362;2023-02-13T09:13:28;151089.34;;;-0.07;85.41
10127;BME280;13080;42.608;23.362;2023-02-13T09:16:00;151115.13;;;0.03;85.50
10127;BME280;13080;42.608;23.362;2023-02-13T09:18:27;151144.72;;;0.15;84.70
10127;BME280;13080;42.608;23.362;2023-02-13T09:20:58;151158.91;;;0.20;84.26
10127;BME280;13080;42.608;23.362;2023-02-13T09:23:25;151206.56;;;0.39;84.52
10127;BME280;13080;42.608;23.362;2023-02-13T09:25:52;151263.22;;;0.62;84.49
10127;BME280;13080;42.608;23.362;2023-02-13T09:28:19;151296.72;;;0.75;82.91
10127;BME280;13080;42.608;23.362;2023-02-13T09:30:47;151310.94;;;0.81;82.56
10127;BME280;13080;42.608;23.362;2023-02-13T09:33:14;151368.91;;;1.04;80.80
10127;BME280;13080;42.608;23.362;2023-02-13T09:35:41;151317.38;;;0.83;81.67
10127;BME280;13080;42.608;23.362;2023-02-13T09:38:09;151295.47;;;0.75;81.49
10127;BME280;13080;42.608;23.362;2023-02-13T09:40:39;151267.13;;;0.64;81.74
10127;BME280;13080;42.608;23.362;2023-02-13T09:43:10;151274.81;;;0.67;83.52
10127;BME280;13080;42.608;23.362;2023-02-13T09:45:39;151265.84;;;0.63;82.09
10127;BME280;13080;42.608;23.362;2023-02-13T09:48:16;151227.19;;;0.48;83.41
10127;BME280;13080;42.608;23.362;2023-02-13T09:50:43;151233.63;;;0.50;84.06
10127;BME280;13080;42.608;23.362;2023-02-13T09:53:16;151238.78;;;0.52;84.06
10127;BME280;13080;42.608;23.362;2023-02-13T09:55:51;151263.22;;;0.62;83.89
10127;BME280;13080;42.608;23.362;2023-02-13T09:58:39;151309.63;;;0.80;82.58
10127;BME280;13080;42.608;23.362;2023-02-13T10:01:17;151328.97;;;0.88;82.44
10127;BME280;13080;42.608;23.362;2023-02-13T10:03:48;151381.78;;;1.09;81.71
10127;BME280;13080;42.608;23.362;2023-02-13T10:06:23;151350.88;;;0.97;82.56
10127;BME280;13080;42.608;23.362;2023-02-13T10:09:08;151334.13;;;0.90;81.58
10127;BME280;13080;42.608;23.362;2023-02-13T10:11:54;151300.63;;;0.77;82.51
10127;BME280;13080;42.608;23.362;2023-02-13T10:14:31;151281.25;;;0.69;83.04
10127;BME280;13080;42.608;23.362;2023-02-13T10:17:04;151276.09;;;0.67;82.88
10127;BME280;13080;42.608;23.362;2023-02-13T10:19:38;151282.59;;;0.70;82.69
10127;BME280;13080;42.608;23.362;2023-02-13T10:22:11;151295.47;;;0.75;82.73
10127;BME280;13080;42.608;23.362;2023-02-13T10:24:41;151300.63;;;0.77;83.01
10127;BME280;13080;42.608;23.362;2023-02-13T10:27:17;151300.63;;;0.77;83.24
10127;BME280;13080;42.608;23.362;2023-02-13T10:29:47;151304.44;;;0.78;83.82
10127;BME280;13080;42.608;23.362;2023-02-13T10:32:42;151298.00;;;0.76;83.69
10127;BME280;13080;42.608;23.362;2023-02-13T10:35:30;151330.25;;;0.89;83.92
10127;BME280;13080;42.608;23.362;2023-02-13T10:37:58;151327.69;;;0.88;82.93
10127;BME280;13080;42.608;23.362;2023-02-13T10:40:30;151304.44;;;0.78;83.58
10127;BME280;13080;42.608;23.362;2023-02-13T10:43:02;151347.00;;;0.95;83.55
10127;BME280;13080;42.608;23.362;2023-02-13T10:45:43;151354.72;;;0.98;81.86
10127;BME280;13080;42.608;23.362;2023-02-13T10:48:26;151331.53;;;0.89;82.81
10127;BME280;13080;42.608;23.362;2023-02-13T10:51:04;151371.47;;;1.05;82.42
10127;BME280;13080;42.608;23.362;2023-02-13T10:53:43;151370.19;;;1.04;82.61
10127;BME280;13080;42.608;23.362;2023-02-13T10:56:20;151341.84;;;0.93;83.50
10127;BME280;13080;42.608;23.362;2023-02-13T10:58:56;151352.16;;;0.97;83.57
10127;BME280;13080;42.608;23.362;2023-02-13T11:01:30;151357.31;;;0.99;83.10
10127;BME280;13080;42.608;23.362;2023-02-13T11:04:03;151376.63;;;1.07;83.09
10127;BME280;13080;42.608;23.362;2023-02-13T11:06:33;151381.78;;;1.09;82.98
10127;BME280;13080;42.608;23.362;2023-02-13T11:09:03;151394.66;;;1.14;82.67
10127;BME280;13080;42.608;23.362;2023-02-13T11:11:31;151372.81;;;1.06;82.79
10127;BME280;13080;42.608;23.362;2023-02-13T11:14:12;151425.63;;;1.27;82.29
10127;BME280;13080;42.608;23.362;2023-02-13T11:16:42;151441.13;;;1.33;81.88
10127;BME280;13080;42.608;23.362;2023-02-13T11:19:17;151439.78;;;1.32;82.74
10127;BME280;13080;42.608;23.362;2023-02-13T11:21:47;151434.69;;;1.30;82.70
10127;BME280;13080;42.608;23.362;2023-02-13T11:24:20;151482.34;;;1.49;80.99
10127;BME280;13080;42.608;23.362;2023-02-13T11:26:51;151493.97;;;1.54;81.36
10127;BME280;13080;42.608;23.362;2023-02-13T11:29:22;151497.84;;;1.55;81.60
10127;BME280;13080;42.608;23.362;2023-02-13T11:32:01;151523.59;;;1.65;81.46
10127;BME280;13080;42.608;23.362;2023-02-13T11:34:31;151548.13;;;1.75;80.81
10127;BME280;13080;42.608;23.362;2023-02-13T11:37:16;151582.94;;;1.89;79.73
10127;BME280;13080;42.608;23.362;2023-02-13T11:39:45;151573.91;;;1.85;78.91
10127;BME280;13080;42.608;23.362;2023-02-13T11:42:14;151568.75;;;1.83;80.02
10127;BME280;13080;42.608;23.362;2023-02-13T11:44:42;151576.50;;;1.86;80.32
10127;BME280;13080;42.608;23.362;2023-02-13T11:47:10;151584.22;;;1.90;79.57
10127;BME280;13080;42.608;23.362;2023-02-13T11:49:44;151608.72;;;1.99;78.98
10127;BME280;13080;42.608;23.362;2023-02-13T11:52:23;151604.88;;;1.98;78.95
10127;BME280;13080;42.608;23.362;2023-02-13T11:54:55;151622.94;;;2.05;77.75
10127;BME280;13080;42.608;23.362;2023-02-13T11:57:23;151639.72;;;2.12;77.96
10127;BME280;13080;42.608;23.362;2023-02-13T11:59:51;151647.44;;;2.15;77.68
10127;BME280;13080;42.608;23.362;2023-02-13T12:02:20;151643.59;;;2.13;76.42
10127;BME280;13080;42.608;23.362;2023-02-13T12:04:49;151657.75;;;2.19;76.18
10127;BME280;13080;42.608;23.362;2023-02-13T12:07:19;151682.25;;;2.28;75.91
10127;BME280;13080;42.608;23.362;2023-02-13T12:09:52;151678.41;;;2.27;75.46
10127;BME280;13080;42.608;23.362;2023-02-13T12:12:24;151683.59;;;2.29;76.20
10127;BME280;13080;42.608;23.362;2023-02-13T12:14:54;151731.31;;;2.48;73.83
10127;BME280;13080;42.608;23.362;2023-02-13T12:17:24;151724.84;;;2.45;74.54
10127;BME280;13080;42.608;23.362;2023-02-13T12:19:53;151731.31;;;2.48;73.78
10127;BME280;13080;42.608;23.362;2023-02-13T12:22:28;151723.59;;;2.45;74.05
10127;BME280;13080;42.608;23.362;2023-02-13T12:25:11;151788.09;;;2.70;73.01
10127;BME280;13080;42.608;23.362;2023-02-13T12:27:45;151808.75;;;2.79;72.16
10127;BME280;13080;42.608;23.362;2023-02-13T12:30:50;151799.69;;;2.75;71.96
10127;BME280;13080;42.608;23.362;2023-02-13T12:33:29;151804.88;;;2.77;72.56
10127;BME280;13080;42.608;23.362;2023-02-13T12:36:11;151807.47;;;2.78;72.05
10127;BME280;13080;42.608;23.362;2023-02-13T12:38:49;151811.31;;;2.80;72.65
10127;BME280;13080;42.608;23.362;2023-02-13T12:41:21;151841.03;;;2.91;72.16
10127;BME280;13080;42.608;23.362;2023-02-13T12:44:13;151837.16;;;2.90;72.03
10127;BME280;13080;42.608;23.362;2023-02-13T12:46:50;151866.84;;;3.02;70.92
10127;BME280;13080;42.608;23.362;2023-02-13T12:49:39;151861.66;;;3.00;69.75
10127;BME280;13080;42.608;23.362;2023-02-13T12:52:23;151888.78;;;3.10;68.91
10127;BME280;13080;42.608;23.362;2023-02-13T12:55:08;151908.13;;;3.18;69.29
10127;BME280;13080;42.608;23.362;2023-02-13T12:57:49;151902.97;;;3.16;69.35
10127;BME280;13080;42.608;23.362;2023-02-13T13:00:32;151913.31;;;3.20;68.26
10127;BME280;13080;42.608;23.362;2023-02-13T13:03:24;151912.03;;;3.20;67.67
10127;BME280;13080;42.608;23.362;2023-02-13T13:06:12;151901.69;;;3.16;66.67